Time;durP1;ratioP1;P1;durP2;ratioP2;P2;SDS_P1;SDS_P2;PMS_P1;PMS_P2;Temp;Humidity;BMP_temperature;BMP_pressure;BME280_temperature;BME280_humidity;BME280_pressure;Samples;Min_cycle;Max_cycle;Signal;HPM_P1;HPM_P2
2022/08/26 00:02:17;;;;;;;3.83;2.03;;;20.30;99.90;;;;;;6011217;23;20191;-62
2022/08/26 00:04:48;;;;;;;3.27;1.80;;;20.30;99.90;;;;;;6033420;23;20638;-62
2022/08/26 00:07:17;;;;;;;3.90;1.83;;;20.30;99.90;;;;;;6009598;23;20169;-62
2022/08/26 00:09:46;;;;;;;4.63;1.97;;;20.20;99.90;;;;;;6011035;23;20170;-62
2022/08/26 00:12:14;;;;;;;3.43;2.00;;;20.20;99.90;;;;;;6033673;23;20170;-62
2022/08/26 00:14:43;;;;;;;5.40;1.90;;;20.20;99.90;;;;;;5986097;23;20296;-62
2022/08/26 00:17:13;;;;;;;7.73;2.50;;;20.20;99.90;;;;;;6011308;23;20249;-63
2022/08/26 00:20:27;;;;;;;6.00;2.00;;;20.20;99.90;;;;;;6011042;23;20170;-62
2022/08/26 00:22:57;;;;;;;5.77;2.40;;;20.20;99.90;;;;;;6010644;23;20204;-62
2022/08/26 00:25:26;;;;;;;7.63;2.43;;;20.20;99.90;;;;;;6025459;23;20195;-62
2022/08/26 00:27:54;;;;;;;3.30;2.10;;;20.20;99.90;;;;;;6067917;23;20254;-62
2022/08/26 00:30:26;;;;;;;9.47;2.20;;;20.20;99.90;;;;;;6068291;23;20168;-63
2022/08/26 00:32:54;;;;;;;3.13;2.03;;;20.20;99.90;;;;;;6068730;23;20184;-62
2022/08/26 00:35:24;;;;;;;2.87;1.93;;;20.20;99.90;;;;;;6069918;23;20485;-63
2022/08/26 00:37:56;;;;;;;6.20;2.50;;;20.20;99.90;;;;;;6069921;23;20212;-62
2022/08/26 00:40:28;;;;;;;3.60;1.70;;;20.20;99.90;;;;;;6044485;23;20239;-64
2022/08/26 00:42:56;;;;;;;7.30;2.10;;;20.20;99.90;;;;;;6044955;23;20184;-62
2022/08/26 00:45:27;;;;;;;3.70;1.80;;;20.20;99.90;;;;;;6069742;23;20251;-62
2022/08/26 00:48:01;;;;;;;4.27;2.10;;;20.20;99.90;;;;;;6044545;23;20174;-61
2022/08/26 00:50:35;;;;;;;3.97;1.93;;;20.30;99.90;;;;;;6069774;23;20168;-62
2022/08/26 00:53:20;;;;;;;4.37;1.70;;;20.20;99.90;;;;;;6070004;23;20171;-62
2022/08/26 00:55:58;;;;;;;2.80;1.77;;;20.30;99.90;;;;;;6069586;23;20542;-63
2022/08/26 00:58:29;;;;;;;4.80;1.87;;;20.30;99.90;;;;;;6069785;23;20168;-62
2022/08/26 01:05:26;;;;;;;4.60;1.80;;;20.30;99.90;;;;;;6069646;23;20465;-62
2022/08/26 01:12:37;;;;;;;3.80;1.70;;;20.20;99.90;;;;;;6069628;23;20208;-63
2022/08/26 01:15:09;;;;;;;3.07;1.70;;;20.10;99.90;;;;;;6069411;23;20172;-62
2022/08/26 01:17:39;;;;;;;4.73;2.17;;;20.10;99.90;;;;;;6069867;23;20172;-62
2022/08/26 01:20:23;;;;;;;5.23;2.10;;;20.10;99.90;;;;;;6069904;23;20161;-62
2022/08/26 01:22:56;;;;;;;3.43;1.63;;;20.00;99.90;;;;;;6044143;23;20271;-62
2022/08/26 01:25:31;;;;;;;6.20;2.00;;;20.00;99.90;;;;;;6069233;23;20222;-64
2022/08/26 01:28:04;;;;;;;5.00;2.37;;;20.00;99.90;;;;;;6069534;23;20251;-62
2022/08/26 01:30:34;;;;;;;2.43;2.10;;;19.90;99.90;;;;;;6069377;23;20171;-62
2022/08/26 01:33:06;;;;;;;8.67;2.47;;;20.00;99.90;;;;;;6069607;23;20539;-62
2022/08/26 01:35:36;;;;;;;3.93;2.40;;;19.90;99.90;;;;;;6069645;23;20459;-62
2022/08/26 01:38:06;;;;;;;5.30;2.23;;;19.90;99.90;;;;;;6069350;23;20513;-62
2022/08/26 01:40:38;;;;;;;4.50;2.00;;;19.90;99.90;;;;;;6043810;23;20643;-62
2022/08/26 01:43:09;;;;;;;3.33;2.00;;;19.90;99.90;;;;;;6044122;23;20610;-62
2022/08/26 01:45:40;;;;;;;5.00;2.10;;;19.90;99.90;;;;;;6069132;23;20169;-62
2022/08/26 01:48:13;;;;;;;8.23;2.50;;;19.90;99.90;;;;;;6069729;23;20547;-62
2022/08/26 01:50:44;;;;;;;6.90;2.33;;;19.90;99.90;;;;;;6043956;23;20216;-62
2022/08/26 01:53:18;;;;;;;9.73;2.10;;;19.90;99.90;;;;;;6069259;23;20164;-63
2022/08/26 01:55:52;;;;;;;4.60;2.40;;;19.90;99.90;;;;;;6069459;23;20184;-63
2022/08/26 01:58:24;;;;;;;4.83;2.30;;;19.80;99.90;;;;;;6069334;23;20711;-62
2022/08/26 02:00:54;;;;;;;4.47;2.33;;;19.80;99.90;;;;;;6069101;23;20211;-62
2022/08/26 02:08:00;;;;;;;5.53;1.93;;;19.80;99.90;;;;;;6043798;23;20157;-63
2022/08/26 02:10:31;;;;;;;5.30;2.50;;;19.80;99.90;;;;;;6068839;23;20168;-62
2022/08/26 02:13:00;;;;;;;3.10;2.10;;;19.80;99.90;;;;;;6068975;23;20165;-62
2022/08/26 02:15:32;;;;;;;4.00;2.10;;;19.80;99.90;;;;;;6043763;23;20176;-62
2022/08/26 02:18:04;;;;;;;4.37;2.23;;;19.80;99.90;;;;;;6043601;23;20171;-63
2022/08/26 02:20:35;;;;;;;5.00;2.50;;;19.80;99.90;;;;;;6068954;23;20190;-62
2022/08/26 02:23:06;;;;;;;5.73;2.60;;;19.80;99.90;;;;;;6043366;23;20244;-63
2022/08/26 02:25:43;;;;;;;4.40;2.20;;;19.80;99.90;;;;;;6068600;23;20240;-62
2022/08/26 02:28:13;;;;;;;5.83;2.47;;;19.80;99.90;;;;;;6043678;23;20195;-62
2022/08/26 02:30:41;;;;;;;6.77;2.70;;;19.80;99.90;;;;;;6068739;23;20243;-63
2022/08/26 02:33:10;;;;;;;9.10;2.57;;;19.80;99.90;;;;;;6043555;23;20687;-63
2022/08/26 02:35:38;;;;;;;6.67;2.57;;;19.80;99.90;;;;;;6043552;23;20251;-63
2022/08/26 02:38:10;;;;;;;6.30;2.47;;;19.80;99.90;;;;;;6069082;23;20211;-62
2022/08/26 02:40:42;;;;;;;4.57;2.40;;;19.80;99.90;;;;;;6068947;23;20253;-63
2022/08/26 02:43:12;;;;;;;3.73;2.47;;;19.70;99.90;;;;;;6068871;23;20223;-62
2022/08/26 02:45:41;;;;;;;4.13;2.23;;;19.70;99.90;;;;;;6043204;23;20250;-62
2022/08/26 02:48:13;;;;;;;3.93;2.10;;;19.70;99.90;;;;;;6043314;23;20164;-63
2022/08/26 02:50:42;;;;;;;6.50;1.90;;;19.70;99.90;;;;;;6068708;23;20163;-63
2022/08/26 02:53:12;;;;;;;4.03;1.83;;;19.70;99.90;;;;;;6068721;23;20269;-62
2022/08/26 02:55:42;;;;;;;3.37;1.73;;;19.70;99.90;;;;;;6068623;23;20243;-62
2022/08/26 02:58:11;;;;;;;4.70;1.80;;;19.70;99.90;;;;;;6068557;23;20194;-63
2022/08/26 03:00:39;;;;;;;3.00;2.00;;;19.70;99.90;;;;;;6068368;23;20252;-62
2022/08/26 03:03:21;;;;;;;2.73;1.80;;;19.70;99.90;;;;;;6068932;23;20216;-61
2022/08/26 03:05:53;;;;;;;4.17;2.23;;;19.60;99.90;;;;;;6068594;23;20623;-62
2022/08/26 03:08:22;;;;;;;4.53;1.70;;;19.60;99.90;;;;;;6043269;23;20192;-63
2022/08/26 03:10:53;;;;;;;7.47;2.40;;;19.60;99.90;;;;;;6068580;23;20620;-62
2022/08/26 03:13:21;;;;;;;3.10;2.00;;;19.50;99.90;;;;;;6043161;23;20255;-62
2022/08/26 03:15:50;;;;;;;4.63;2.30;;;19.50;99.90;;;;;;6068252;23;20219;-62
2022/08/26 03:18:18;;;;;;;2.40;1.70;;;19.50;99.90;;;;;;6068513;23;20621;-62
2022/08/26 03:20:47;;;;;;;6.20;1.97;;;19.50;99.90;;;;;;6068273;23;20172;-63
2022/08/26 03:23:16;;;;;;;2.00;1.80;;;19.40;99.90;;;;;;6068462;23;20598;-63
2022/08/26 03:25:49;;;;;;;3.13;1.93;;;19.40;99.90;;;;;;6068131;23;20192;-63
2022/08/26 03:28:20;;;;;;;3.13;1.90;;;19.40;99.90;;;;;;6068207;23;20247;-63
2022/08/26 03:30:48;;;;;;;5.53;1.77;;;19.40;99.90;;;;;;6043427;23;20225;-63
2022/08/26 03:33:17;;;;;;;1.90;1.70;;;19.40;99.90;;;;;;6068549;23;20247;-62
2022/08/26 03:35:47;;;;;;;3.07;1.90;;;19.40;99.90;;;;;;6068324;23;20541;-63
2022/08/26 03:38:18;;;;;;;4.90;1.93;;;19.40;99.90;;;;;;6043516;23;20240;-62
2022/08/26 03:40:47;;;;;;;3.90;2.10;;;19.30;99.90;;;;;;6043159;23;20341;-62
2022/08/26 03:43:20;;;;;;;3.40;1.97;;;19.30;99.90;;;;;;6068323;23;20583;-62
2022/08/26 03:45:48;;;;;;;4.43;1.77;;;19.30;99.90;;;;;;6042734;23;20258;-62
2022/08/26 03:48:18;;;;;;;2.87;1.90;;;19.30;99.90;;;;;;6068420;23;20168;-63
2022/08/26 03:50:49;;;;;;;5.50;1.90;;;19.30;99.90;;;;;;6042894;23;20160;-63
2022/08/26 03:53:18;;;;;;;4.70;1.83;;;19.30;99.90;;;;;;6042577;23;20609;-63
2022/08/26 03:55:48;;;;;;;4.63;2.10;;;19.30;99.90;;;;;;6068046;23;20220;-64
2022/08/26 03:58:22;;;;;;;2.60;2.10;;;19.30;99.90;;;;;;6068172;23;20168;-62
2022/08/26 04:00:51;;;;;;;5.67;2.30;;;19.30;99.90;;;;;;6068193;23;20251;-62
2022/08/26 04:04:00;;;;;;;2.70;2.03;;;19.30;99.90;;;;;;6068512;23;20187;-62
2022/08/26 04:07:07;;;;;;;3.43;2.20;;;19.30;99.90;;;;;;6068114;23;20609;-62
2022/08/26 04:09:36;;;;;;;4.03;1.93;;;19.30;99.90;;;;;;6044611;23;20179;-62
2022/08/26 04:12:08;;;;;;;6.87;2.80;;;19.30;99.90;;;;;;6070028;23;20164;-62
2022/08/26 04:14:38;;;;;;;3.43;2.70;;;19.30;99.90;;;;;;6070079;23;20243;-63
2022/08/26 04:17:07;;;;;;;6.00;2.40;;;19.20;99.90;;;;;;6044607;23;20243;-62
2022/08/26 04:19:35;;;;;;;5.07;2.37;;;19.20;99.90;;;;;;6044672;23;20175;-62
2022/08/26 04:22:03;;;;;;;6.50;2.90;;;19.10;99.90;;;;;;6069960;23;20252;-64
2022/08/26 04:24:33;;;;;;;10.70;2.20;;;19.10;99.90;;;;;;6069955;23;20192;-63
2022/08/26 04:27:02;;;;;;;5.27;2.10;;;19.10;99.90;;;;;;6069869;23;20728;-63
2022/08/26 04:29:31;;;;;;;7.63;2.13;;;19.10;99.90;;;;;;6070236;23;20160;-63
2022/08/26 04:32:03;;;;;;;4.50;2.03;;;19.10;99.90;;;;;;6069890;23;20168;-62
2022/08/26 04:34:33;;;;;;;4.00;2.47;;;19.10;99.90;;;;;;6069830;23;20168;-63
2022/08/26 04:37:01;;;;;;;3.50;2.10;;;19.10;99.90;;;;;;6044307;23;20204;-62
2022/08/26 04:39:30;;;;;;;6.03;2.30;;;19.10;99.90;;;;;;6069781;23;20195;-62
2022/08/26 04:41:59;;;;;;;3.73;2.03;;;19.20;99.90;;;;;;6061367;23;20192;-62
2022/08/26 04:44:30;;;;;;;3.50;2.03;;;19.20;99.90;;;;;;6065114;23;20224;-62
2022/08/26 04:46:58;;;;;;;5.77;2.20;;;19.20;99.90;;;;;;6038179;23;20251;-62
2022/08/26 04:49:28;;;;;;;2.93;2.10;;;19.30;99.90;;;;;;6039629;23;20188;-62
2022/08/26 04:52:03;;;;;;;4.30;1.80;;;19.30;99.90;;;;;;6064782;23;20258;-62
2022/08/26 04:54:32;;;;;;;1.70;1.60;;;19.30;99.90;;;;;;6065800;23;20239;-62
2022/08/26 04:57:01;;;;;;;3.43;1.63;;;19.30;99.90;;;;;;6063255;23;20164;-62
2022/08/26 04:59:29;;;;;;;4.70;1.83;;;19.40;99.90;;;;;;6064941;23;20204;-62
2022/08/26 05:01:58;;;;;;;4.80;1.90;;;19.40;99.90;;;;;;6061670;23;20556;-62
2022/08/26 05:04:29;;;;;;;1.60;1.50;;;19.40;99.90;;;;;;6038734;23;20223;-62
2022/08/26 05:06:57;;;;;;;3.80;1.87;;;19.40;99.90;;;;;;6064954;23;20207;-62
2022/08/26 05:09:30;;;;;;;5.40;2.03;;;19.40;99.90;;;;;;6039881;23;20544;-62
2022/08/26 05:11:58;;;;;;;5.77;1.53;;;19.40;99.90;;;;;;6038760;23;20616;-62
2022/08/26 05:14:30;;;;;;;3.87;2.07;;;19.40;99.90;;;;;;6064657;23;20165;-62
2022/08/26 05:16:58;;;;;;;4.60;1.60;;;19.40;99.90;;;;;;6064617;23;20248;-62
2022/08/26 05:19:28;;;;;;;4.00;1.60;;;19.40;99.90;;;;;;6066065;23;20247;-62
2022/08/26 05:21:56;;;;;;;3.17;1.73;;;19.50;99.90;;;;;;6065377;23;20534;-62
2022/08/26 05:24:25;;;;;;;5.33;1.60;;;19.40;99.90;;;;;;6066836;23;20270;-62
2022/08/26 05:26:54;;;;;;;2.50;1.60;;;19.50;99.90;;;;;;6064759;23;20204;-62
2022/08/26 05:29:23;;;;;;;2.00;1.57;;;19.50;99.90;;;;;;6067120;23;20168;-62
2022/08/26 05:31:52;;;;;;;2.30;1.80;;;19.50;99.90;;;;;;6064708;23;20187;-62
2022/08/26 05:34:23;;;;;;;2.57;1.50;;;19.50;99.90;;;;;;6066219;23;20201;-62
2022/08/26 05:36:58;;;;;;;2.80;1.60;;;19.50;99.90;;;;;;6065113;23;20173;-62
2022/08/26 05:39:27;;;;;;;1.70;1.60;;;19.60;99.90;;;;;;6066355;23;20591;-62
2022/08/26 05:41:55;;;;;;;3.57;1.53;;;19.60;99.90;;;;;;6064557;23;20219;-62
2022/08/26 05:44:24;;;;;;;3.13;1.40;;;19.60;99.90;;;;;;6066072;23;20685;-62
2022/08/26 05:46:52;;;;;;;3.27;1.57;;;19.60;99.90;;;;;;6039532;23;20712;-62
2022/08/26 05:49:21;;;;;;;4.93;1.60;;;19.60;99.90;;;;;;6065795;23;20169;-62
2022/08/26 05:51:53;;;;;;;3.30;1.67;;;19.70;99.90;;;;;;6064537;23;20175;-62
2022/08/26 05:54:23;;;;;;;1.73;1.50;;;19.70;99.90;;;;;;6040362;23;20168;-62
2022/08/26 05:56:52;;;;;;;3.93;1.77;;;19.70;99.90;;;;;;6038752;23;20172;-62
2022/08/26 05:59:21;;;;;;;2.53;1.40;;;19.70;99.90;;;;;;6064980;23;20238;-62
2022/08/26 06:01:53;;;;;;;4.33;1.97;;;19.70;99.90;;;;;;6064528;23;20172;-62
2022/08/26 06:04:22;;;;;;;2.13;1.57;;;19.80;99.90;;;;;;6066305;23;20243;-62
2022/08/26 06:06:54;;;;;;;4.63;1.87;;;19.80;99.90;;;;;;6039908;23;20535;-62
2022/08/26 06:09:25;;;;;;;6.30;1.87;;;19.80;99.90;;;;;;6067004;23;20173;-62
2022/08/26 06:11:54;;;;;;;1.83;1.70;;;19.90;99.90;;;;;;6038717;23;20284;-62
2022/08/26 06:14:24;;;;;;;7.40;1.73;;;19.90;99.90;;;;;;6066203;23;20167;-62
2022/08/26 06:16:53;;;;;;;1.60;1.40;;;19.90;99.90;;;;;;6064762;23;20362;-62
2022/08/26 06:19:22;;;;;;;2.30;1.50;;;20.00;99.90;;;;;;6065677;23;20168;-62
2022/08/26 06:21:51;;;;;;;6.30;1.53;;;20.10;99.90;;;;;;6065653;23;20223;-62
2022/08/26 06:27:12;;;;;;;3.07;1.77;;;20.20;99.90;;;;;;6039420;23;20196;-62
2022/08/26 06:29:42;;;;;;;3.07;1.53;;;20.20;99.90;;;;;;6065209;23;20172;-63
2022/08/26 06:32:11;;;;;;;2.30;1.60;;;20.20;99.90;;;;;;6064448;23;20169;-62
2022/08/26 06:34:39;;;;;;;1.77;1.60;;;20.20;99.90;;;;;;6065439;23;20251;-61
2022/08/26 06:37:08;;;;;;;4.93;1.87;;;20.20;99.90;;;;;;6065402;23;20227;-62
2022/08/26 06:39:38;;;;;;;4.67;1.90;;;20.30;99.90;;;;;;6066039;23;20168;-62
2022/08/26 06:42:09;;;;;;;4.00;1.90;;;20.30;99.90;;;;;;6065880;23;20207;-62
2022/08/26 06:44:38;;;;;;;5.37;2.20;;;20.30;99.90;;;;;;6066052;23;20240;-62
2022/08/26 06:47:08;;;;;;;4.60;2.10;;;20.30;99.90;;;;;;6040482;23;20598;-62
2022/08/26 06:49:37;;;;;;;5.80;2.27;;;20.30;99.90;;;;;;6065896;23;20258;-62
2022/08/26 06:52:06;;;;;;;7.57;2.40;;;20.30;99.90;;;;;;6065832;23;20220;-62
2022/08/26 06:54:35;;;;;;;4.50;2.17;;;20.30;99.90;;;;;;6064062;23;20184;-61
2022/08/26 06:57:07;;;;;;;4.27;1.80;;;20.40;99.90;;;;;;6064846;23;20175;-61
2022/08/26 06:59:37;;;;;;;6.30;1.90;;;20.40;99.90;;;;;;6063917;23;20479;-61
2022/08/26 07:02:05;;;;;;;7.20;2.03;;;20.40;99.90;;;;;;6062905;23;20505;-61
2022/08/26 07:04:35;;;;;;;6.73;2.10;;;20.40;99.90;;;;;;6036652;23;20616;-62
2022/08/26 07:07:04;;;;;;;6.43;2.00;;;20.50;99.90;;;;;;6064714;23;20173;-62
2022/08/26 07:09:34;;;;;;;8.43;2.17;;;20.40;99.90;;;;;;6062431;23;20177;-62
2022/08/26 07:12:05;;;;;;;3.23;1.87;;;20.50;99.90;;;;;;6064739;23;20228;-61
2022/08/26 07:14:35;;;;;;;10.10;1.80;;;20.50;99.90;;;;;;6063590;23;20236;-62
2022/08/26 07:17:04;;;;;;;2.40;1.63;;;20.60;99.90;;;;;;6040010;23;20211;-61
2022/08/26 07:19:37;;;;;;;3.57;1.70;;;20.60;99.90;;;;;;6065866;23;20204;-61
2022/08/26 07:22:06;;;;;;;4.93;1.93;;;20.60;99.90;;;;;;6039104;23;20625;-61
2022/08/26 07:24:40;;;;;;;6.10;1.50;;;20.60;99.90;;;;;;6064434;23;20539;-61
2022/08/26 07:27:14;;;;;;;5.60;1.70;;;20.70;99.90;;;;;;6062651;23;20576;-62
2022/08/26 07:29:44;;;;;;;1.57;1.47;;;20.70;99.90;;;;;;6064589;23;20242;-62
2022/08/26 07:32:14;;;;;;;3.53;1.50;;;20.80;99.90;;;;;;6064906;23;20206;-61
2022/08/26 07:34:48;;;;;;;7.80;1.60;;;20.90;99.90;;;;;;6063371;23;20178;-62
2022/08/26 07:37:17;;;;;;;8.90;1.93;;;20.90;99.90;;;;;;6065557;23;20156;-62
2022/08/26 07:39:47;;;;;;;4.73;1.60;;;20.90;99.90;;;;;;6062773;23;21004;-62
2022/08/26 07:42:20;;;;;;;2.70;1.60;;;21.00;99.90;;;;;;6062498;23;20228;-61
2022/08/26 07:44:50;;;;;;;2.77;1.50;;;21.10;99.90;;;;;;6065683;23;20196;-61
2022/08/26 07:47:20;;;;;;;2.80;1.57;;;21.20;99.90;;;;;;6066601;23;20621;-62
2022/08/26 07:49:54;;;;;;;3.27;1.57;;;21.40;99.90;;;;;;6065142;23;20232;-62
2022/08/26 07:52:24;;;;;;;4.43;1.47;;;21.50;99.90;;;;;;6064765;23;20175;-62
2022/08/26 07:54:56;;;;;;;7.00;1.53;;;21.70;99.90;;;;;;6063307;23;20728;-61
2022/08/26 07:57:25;;;;;;;3.70;1.60;;;21.80;99.90;;;;;;6062112;23;20180;-61
2022/08/26 07:59:56;;;;;;;5.30;1.50;;;22.00;99.90;;;;;;6061945;23;20366;-61
2022/08/26 08:02:25;;;;;;;2.37;1.30;;;22.20;99.90;;;;;;6061252;23;20165;-62
2022/08/26 08:04:55;;;;;;;8.33;1.80;;;22.40;99.90;;;;;;6063255;23;20503;-62
2022/08/26 08:07:24;;;;;;;3.37;1.80;;;22.60;99.90;;;;;;6062302;23;20194;-63
2022/08/26 08:10:15;;;;;;;7.33;1.50;;;22.70;99.90;;;;;;6061555;23;20186;-62
2022/08/26 08:12:44;;;;;;;1.27;1.23;;;22.80;99.90;;;;;;6059988;23;20174;-62
2022/08/26 08:15:14;;;;;;;3.23;1.60;;;22.90;99.90;;;;;;6061420;23;20206;-62
2022/08/26 08:17:43;;;;;;;5.27;1.63;;;23.00;99.90;;;;;;6036957;23;20245;-62
2022/08/26 08:20:13;;;;;;;2.73;1.27;;;23.00;99.90;;;;;;6061807;23;20249;-62
2022/08/26 08:22:42;;;;;;;3.47;1.23;;;23.10;99.90;;;;;;6060160;23;20507;-62
2022/08/26 08:25:12;;;;;;;2.03;1.50;;;23.00;99.90;;;;;;6061513;23;20271;-62
2022/08/26 08:27:42;;;;;;;3.27;1.70;;;22.80;99.90;;;;;;6060839;23;20249;-62
2022/08/26 08:30:15;;;;;;;3.40;1.43;;;22.60;99.90;;;;;;6061549;23;20505;-62
2022/08/26 08:32:50;;;;;;;2.20;1.50;;;22.60;99.90;;;;;;6034518;23;20177;-62
2022/08/26 08:35:21;;;;;;;2.30;1.60;;;22.40;99.90;;;;;;6059842;23;20169;-61
2022/08/26 08:37:53;;;;;;;5.97;1.30;;;22.40;99.90;;;;;;6062317;23;20169;-62
2022/08/26 08:40:23;;;;;;;1.03;1.03;;;22.40;99.90;;;;;;6062642;23;20201;-62
2022/08/26 08:42:58;;;;;;;5.17;1.83;;;22.60;99.90;;;;;;6058516;23;20193;-62
2022/08/26 08:45:33;;;;;;;2.50;1.30;;;22.70;99.90;;;;;;6061504;23;20175;-62
2022/08/26 08:48:10;;;;;;;2.57;1.13;;;22.80;99.90;;;;;;6031333;23;20174;-62
2022/08/26 08:50:44;;;;;;;3.50;1.53;;;22.70;99.90;;;;;;6060720;23;20245;-62
2022/08/26 08:53:16;;;;;;;4.53;1.30;;;22.70;99.90;;;;;;6039158;23;20193;-62
2022/08/26 08:56:10;;;;;;;2.40;1.37;;;22.70;99.90;;;;;;6065608;23;20204;-62
2022/08/26 08:58:52;;;;;;;2.67;1.40;;;22.90;99.90;;;;;;6062258;23;20630;-62
2022/08/26 09:01:38;;;;;;;1.33;1.23;;;22.90;99.90;;;;;;6065463;23;20181;-62
2022/08/26 09:04:23;;;;;;;1.57;1.07;;;23.00;99.90;;;;;;6063453;23;20172;-62
2022/08/26 09:06:55;;;;;;;5.30;1.13;;;23.00;99.90;;;;;;6064060;23;20289;-62
2022/08/26 09:09:30;;;;;;;1.97;0.97;;;23.30;99.90;;;;;;6064043;23;20198;-62
2022/08/26 09:12:00;;;;;;;0.97;0.97;;;23.30;99.90;;;;;;6064633;23;20250;-62
2022/08/26 09:14:30;;;;;;;1.37;0.90;;;23.30;99.90;;;;;;6065717;23;20548;-62
2022/08/26 09:17:06;;;;;;;5.20;1.40;;;23.50;99.90;;;;;;6064746;23;20169;-62
2022/08/26 09:19:40;;;;;;;0.90;0.83;;;23.70;99.90;;;;;;6064078;23;20177;-62
2022/08/26 09:22:08;;;;;;;2.00;1.00;;;23.80;99.90;;;;;;6064460;23;20172;-62
2022/08/26 09:24:40;;;;;;;1.03;0.90;;;23.70;99.90;;;;;;6063828;23;20270;-62
2022/08/26 09:27:37;;;;;;;3.37;1.00;;;23.60;99.90;;;;;;6063766;23;20191;-62
2022/08/26 09:30:07;;;;;;;1.53;1.23;;;23.60;99.90;;;;;;6065089;23;20210;-62
2022/08/26 09:32:40;;;;;;;0.80;0.80;;;23.60;99.90;;;;;;6065181;23;20176;-62
2022/08/26 09:35:23;;;;;;;2.60;0.90;;;23.70;99.90;;;;;;6066256;23;20539;-62
2022/08/26 09:37:51;;;;;;;0.70;0.70;;;23.90;99.90;;;;;;6064160;23;20231;-62
2022/08/26 09:40:27;;;;;;;2.33;1.00;;;23.90;99.90;;;;;;6064192;23;20176;-62
2022/08/26 09:43:08;;;;;;;4.00;0.80;;;24.10;99.90;;;;;;6062794;23;20734;-62
2022/08/26 09:45:39;;;;;;;1.17;0.87;;;24.10;99.90;;;;;;6063138;23;20594;-62
2022/08/26 09:48:34;;;;;;;1.70;1.07;;;24.10;99.90;;;;;;6036265;23;20164;-62
2022/08/26 09:51:05;;;;;;;0.73;0.73;;;24.30;99.90;;;;;;6039957;23;20171;-62
2022/08/26 09:53:49;;;;;;;2.77;0.80;;;24.40;99.90;;;;;;6038643;23;20195;-62
2022/08/26 09:56:25;;;;;;;1.60;0.77;;;24.50;99.90;;;;;;6065022;23;20522;-62
2022/08/26 09:58:56;;;;;;;1.13;0.73;;;24.40;99.90;;;;;;6038007;23;20555;-62
2022/08/26 10:01:30;;;;;;;3.97;0.70;;;24.30;99.90;;;;;;6061676;23;20636;-62
2022/08/26 10:04:07;;;;;;;0.93;0.70;;;24.40;99.90;;;;;;6038729;23;20168;-62
2022/08/26 10:06:40;;;;;;;0.50;0.50;;;24.70;99.90;;;;;;6038993;23;20196;-62
2022/08/26 10:09:12;;;;;;;0.90;0.90;;;25.40;99.90;;;;;;6064542;23;20526;-62
2022/08/26 10:11:47;;;;;;;0.68;0.68;;;26.00;99.90;;;;;;6038934;23;20243;-62
2022/08/26 10:14:21;;;;;;;0.57;0.57;;;26.60;99.90;;;;;;6038599;23;20170;-62
2022/08/26 10:16:55;;;;;;;0.52;0.43;;;26.60;99.90;;;;;;6062225;23;20152;-62
2022/08/26 10:19:32;;;;;;;1.90;0.88;;;26.90;99.90;;;;;;6061950;23;20173;-62
2022/08/26 10:22:25;;;;;;;1.88;0.60;;;27.30;99.90;;;;;;6060702;23;20258;-62
2022/08/26 10:24:59;;;;;;;1.33;0.73;;;26.90;99.90;;;;;;6037966;23;20304;-62
2022/08/26 10:27:39;;;;;;;2.45;0.70;;;26.30;99.90;;;;;;6039039;23;20664;-62
2022/08/26 10:30:23;;;;;;;0.83;0.80;;;25.90;99.90;;;;;;6062759;23;20178;-62
2022/08/26 10:32:55;;;;;;;1.10;0.87;;;25.60;99.90;;;;;;6063484;23;20566;-62
2022/08/26 10:35:26;;;;;;;1.63;1.07;;;25.40;99.90;;;;;;6062480;23;20259;-62
2022/08/26 10:37:59;;;;;;;2.73;1.00;;;25.50;99.90;;;;;;6038553;23;20170;-62
2022/08/26 10:40:35;;;;;;;3.95;1.08;;;25.70;99.90;;;;;;6063646;23;20196;-62
2022/08/26 10:43:08;;;;;;;3.10;1.17;;;26.10;99.90;;;;;;6063817;23;20152;-62
2022/08/26 10:45:44;;;;;;;2.70;1.15;;;26.30;99.90;;;;;;6064207;23;20169;-62
2022/08/26 10:48:17;;;;;;;3.10;1.37;;;26.20;99.90;;;;;;6037532;23;20651;-62
2022/08/26 10:50:47;;;;;;;2.33;1.10;;;25.90;99.90;;;;;;6064463;23;20169;-62
2022/08/26 10:53:37;;;;;;;3.03;1.23;;;25.50;99.90;;;;;;6038666;23;20220;-62
2022/08/26 10:56:18;;;;;;;0.90;0.90;;;25.40;99.90;;;;;;6062729;23;20191;-62
2022/08/26 10:58:58;;;;;;;1.10;0.90;;;25.20;99.90;;;;;;6039586;23;20275;-62
2022/08/26 11:01:45;;;;;;;2.13;1.00;;;25.30;99.90;;;;;;6063143;23;20251;-62
2022/08/26 11:04:53;;;;;;;5.30;1.00;;;25.40;99.90;;;;;;6063594;23;20173;-62
2022/08/26 11:07:39;;;;;;;3.23;0.97;;;25.80;99.90;;;;;;6030673;23;20196;-62
2022/08/26 11:10:27;;;;;;;1.05;1.00;;;26.40;99.90;;;;;;6063160;23;20643;-62
2022/08/26 11:12:58;;;;;;;0.80;0.75;;;27.40;99.90;;;;;;6036050;23;20189;-62
2022/08/26 11:16:09;;;;;;;4.32;1.10;;;27.80;99.90;;;;;;6063762;23;20277;-62
2022/08/26 11:18:53;;;;;;;1.38;0.80;;;27.80;99.90;;;;;;6063180;23;20160;-62
2022/08/26 11:22:03;;;;;;;4.32;1.20;;;27.90;99.90;;;;;;6062144;23;20166;-62
2022/08/26 11:25:10;;;;;;;2.53;0.95;;;27.90;99.90;;;;;;6063102;23;20202;-62
2022/08/26 11:28:05;;;;;;;1.10;1.10;;;27.60;99.90;;;;;;6062757;23;20216;-62
2022/08/26 11:30:48;;;;;;;0.77;0.75;;;27.90;99.90;;;;;;6037706;23;20168;-62
2022/08/26 11:33:58;;;;;;;0.90;0.90;;;27.60;99.90;;;;;;6064806;23;20168;-62
2022/08/26 11:36:56;;;;;;;2.05;0.70;;;28.00;99.90;;;;;;6063318;23;20180;-62
2022/08/26 11:39:29;;;;;;;1.30;0.95;;;28.50;99.90;;;;;;6064379;23;20191;-62
2022/08/26 11:42:01;;;;;;;2.10;0.90;;;28.70;99.90;;;;;;6064835;23;20176;-62
2022/08/26 11:44:38;;;;;;;0.80;0.80;;;28.60;99.90;;;;;;6064971;23;20765;-62
2022/08/26 11:47:09;;;;;;;1.08;1.08;;;28.20;99.90;;;;;;6065269;23;20224;-62
2022/08/26 11:49:39;;;;;;;2.35;1.15;;;27.70;99.90;;;;;;6064766;23;20683;-62
2022/08/26 11:52:16;;;;;;;1.98;0.90;;;27.40;99.90;;;;;;6065337;23;20173;-62
2022/08/26 11:55:01;;;;;;;0.80;0.80;;;27.40;99.90;;;;;;6065121;23;20176;-62
2022/08/26 11:57:34;;;;;;;0.70;0.70;;;27.30;99.90;;;;;;6040486;23;20173;-62
2022/08/26 12:00:05;;;;;;;0.90;0.90;;;26.90;99.90;;;;;;6063272;23;20191;-61
2022/08/26 12:02:40;;;;;;;1.30;0.70;;;26.40;99.90;;;;;;6039130;23;20223;-61
2022/08/26 12:05:09;;;;;;;1.00;0.90;;;26.20;99.90;;;;;;6065359;23;20164;-61
2022/08/26 12:07:38;;;;;;;1.67;0.93;;;26.10;99.90;;;;;;6063199;23;20498;-61
2022/08/26 12:10:24;;;;;;;1.13;0.93;;;26.00;99.90;;;;;;6061203;23;20184;-61
2022/08/26 12:12:59;;;;;;;2.10;1.00;;;25.80;99.90;;;;;;6036772;23;20250;-61
2022/08/26 12:15:29;;;;;;;1.87;1.07;;;25.90;99.90;;;;;;6063046;23;20260;-61
2022/08/26 12:17:58;;;;;;;1.17;0.80;;;26.00;99.90;;;;;;6063559;23;20852;-62
2022/08/26 12:20:44;;;;;;;2.80;1.00;;;26.20;99.90;;;;;;6064092;23;20177;-61
2022/08/26 12:23:31;;;;;;;1.73;0.80;;;26.40;99.90;;;;;;6064204;23;20961;-61
2022/08/26 12:26:05;;;;;;;2.57;1.10;;;26.10;99.90;;;;;;6063074;23;20196;-61
2022/08/26 12:28:42;;;;;;;2.10;0.93;;;25.70;99.90;;;;;;6063802;23;20188;-62
2022/08/26 12:31:11;;;;;;;4.53;0.87;;;25.50;99.90;;;;;;6065072;23;20165;-61
2022/08/26 12:33:44;;;;;;;4.20;1.20;;;25.50;99.90;;;;;;6015556;23;20720;-61
2022/08/26 12:36:13;;;;;;;2.13;1.00;;;25.50;99.90;;;;;;6062959;23;20172;-61
2022/08/26 12:38:41;;;;;;;2.87;0.93;;;25.60;99.90;;;;;;6064312;23;20239;-61
2022/08/26 12:41:09;;;;;;;2.30;1.10;;;25.50;99.90;;;;;;6037402;23;20564;-61
2022/08/26 12:43:45;;;;;;;3.30;1.00;;;25.40;99.90;;;;;;6038317;23;20502;-62
2022/08/26 12:46:18;;;;;;;3.20;1.40;;;25.40;99.90;;;;;;6039413;23;20676;-61
2022/08/26 12:48:49;;;;;;;1.23;1.10;;;25.50;99.90;;;;;;6065419;23;20192;-62
2022/08/26 12:51:24;;;;;;;2.33;1.00;;;25.70;99.90;;;;;;6065139;23;20723;-61
2022/08/26 12:53:53;;;;;;;2.90;0.97;;;25.80;99.90;;;;;;6063967;23;20198;-61
2022/08/26 12:56:29;;;;;;;2.30;1.00;;;25.80;99.90;;;;;;6064692;23;20169;-61
2022/08/26 12:59:05;;;;;;;2.17;1.03;;;26.00;99.90;;;;;;6065462;23;20195;-61
2022/08/26 13:01:42;;;;;;;1.90;1.03;;;26.10;99.90;;;;;;6066381;23;20168;-61
2022/08/26 13:04:33;;;;;;;3.50;1.17;;;26.10;99.90;;;;;;6065546;23;20174;-61
2022/08/26 13:07:20;;;;;;;4.40;1.17;;;26.10;99.90;;;;;;6066570;23;20175;-62
2022/08/26 13:09:50;;;;;;;2.60;1.03;;;26.00;99.90;;;;;;6065544;23;20192;-61
2022/08/26 13:12:30;;;;;;;1.00;0.90;;;25.90;99.90;;;;;;6065472;23;20204;-61
2022/08/26 13:15:01;;;;;;;1.10;1.00;;;25.80;99.90;;;;;;6040611;23;20250;-61
2022/08/26 13:17:30;;;;;;;1.10;1.10;;;25.60;99.90;;;;;;6065684;23;20226;-62
2022/08/26 13:20:00;;;;;;;3.37;1.10;;;25.70;99.90;;;;;;6065933;23;20506;-61
2022/08/26 13:22:31;;;;;;;3.13;0.90;;;25.90;99.90;;;;;;6066204;23;20164;-61
2022/08/26 13:25:00;;;;;;;2.80;1.20;;;25.90;99.90;;;;;;6039259;23;20196;-61
2022/08/26 13:27:28;;;;;;;2.83;1.10;;;25.80;99.90;;;;;;6038102;23;20248;-62
2022/08/26 13:29:57;;;;;;;2.07;1.03;;;25.70;99.90;;;;;;6039763;23;20222;-61
2022/08/26 13:32:29;;;;;;;5.67;1.07;;;25.50;99.90;;;;;;6063477;23;20546;-61
2022/08/26 13:34:57;;;;;;;1.53;1.17;;;25.50;99.90;;;;;;6063220;23;20196;-61
2022/08/26 13:37:27;;;;;;;2.77;1.20;;;25.20;99.90;;;;;;6063417;23;20557;-61